sensor_id;sensor_type;location;lat;lon;timestamp;P1;durP1;ratioP1;P2;durP2;ratioP2
7661;SDS011;30314;48.184;11.510;2023-12-14T00:01:16;8.90;;;0.70;;
7661;SDS011;30314;48.184;11.510;2023-12-14T00:03:42;1.97;;;1.13;;
7661;SDS011;30314;48.184;11.510;2023-12-14T00:06:12;1.10;;;0.60;;
7661;SDS011;30314;48.184;11.510;2023-12-14T00:08:40;2.13;;;0.80;;
7661;SDS011;30314;48.184;11.510;2023-12-14T00:11:10;1.57;;;0.77;;
7661;SDS011;30314;48.184;11.510;2023-12-14T00:13:38;1.50;;;0.53;;
7661;SDS011;30314;48.184;11.510;2023-12-14T00:16:05;2.30;;;0.93;;
7661;SDS011;30314;48.184;11.510;2023-12-14T00:18:32;2.00;;;0.83;;
7661;SDS011;30314;48.184;11.510;2023-12-14T00:20:59;1.10;;;0.60;;
7661;SDS011;30314;48.184;11.510;2023-12-14T00:23:26;1.10;;;0.80;;
7661;SDS011;30314;48.184;11.510;2023-12-14T00:25:52;1.00;;;0.50;;
7661;SDS011;30314;48.184;11.510;2023-12-14T00:28:19;0.93;;;0.40;;
7661;SDS011;30314;48.184;11.510;2023-12-14T00:30:46;1.43;;;0.60;;
7661;SDS011;30314;48.184;11.510;2023-12-14T00:33:12;4.93;;;0.57;;
7661;SDS011;30314;48.184;11.510;2023-12-14T00:35:39;1.70;;;0.80;;
7661;SDS011;30314;48.184;11.510;2023-12-14T00:38:06;2.40;;;0.50;;
7661;SDS011;30314;48.184;11.510;2023-12-14T00:40:32;1.40;;;0.50;;
7661;SDS011;30314;48.184;11.510;2023-12-14T00:42:59;1.07;;;0.60;;
7661;SDS011;30314;48.184;11.510;2023-12-14T00:45:26;1.00;;;0.70;;
7661;SDS011;30314;48.184;11.510;2023-12-14T00:47:52;1.77;;;0.80;;
7661;SDS011;30314;48.184;11.510;2023-12-14T00:50:19;1.63;;;0.97;;
7661;SDS011;30314;48.184;11.510;2023-12-14T00:52:46;2.20;;;0.90;;
7661;SDS011;30314;48.184;11.510;2023-12-14T00:55:12;4.70;;;1.23;;
7661;SDS011;30314;48.184;11.510;2023-12-14T00:57:39;1.13;;;0.60;;
7661;SDS011;30314;48.184;11.510;2023-12-14T01:00:06;2.97;;;0.70;;
7661;SDS011;30314;48.184;11.510;2023-12-14T01:02:33;1.00;;;0.90;;
7661;SDS011;30314;48.184;11.510;2023-12-14T01:05:00;2.10;;;1.00;;
7661;SDS011;30314;48.184;11.510;2023-12-14T01:07:28;1.87;;;0.83;;
7661;SDS011;30314;48.184;11.510;2023-12-14T01:09:55;3.13;;;0.90;;
7661;SDS011;30314;48.184;11.510;2023-12-14T01:12:21;1.27;;;0.90;;
7661;SDS011;30314;48.184;11.510;2023-12-14T01:14:48;1.43;;;0.70;;
7661;SDS011;30314;48.184;11.510;2023-12-14T01:17:15;0.90;;;0.60;;
7661;SDS011;30314;48.184;11.510;2023-12-14T01:19:41;1.87;;;0.80;;
7661;SDS011;30314;48.184;11.510;2023-12-14T01:22:08;1.43;;;0.90;;
7661;SDS011;30314;48.184;11.510;2023-12-14T01:24:34;1.40;;;0.90;;
7661;SDS011;30314;48.184;11.510;2023-12-14T01:27:01;3.10;;;0.80;;
7661;SDS011;30314;48.184;11.510;2023-12-14T01:29:28;2.70;;;1.00;;
7661;SDS011;30314;48.184;11.510;2023-12-14T01:31:54;1.20;;;0.60;;
7661;SDS011;30314;48.184;11.510;2023-12-14T01:34:21;1.03;;;0.50;;
7661;SDS011;30314;48.184;11.510;2023-12-14T01:36:47;1.00;;;0.50;;
7661;SDS011;30314;48.184;11.510;2023-12-14T01:39:14;1.10;;;0.70;;
7661;SDS011;30314;48.184;11.510;2023-12-14T01:41:40;1.00;;;0.40;;
7661;SDS011;30314;48.184;11.510;2023-12-14T01:44:07;1.20;;;0.60;;
7661;SDS011;30314;48.184;11.510;2023-12-14T01:46:34;1.50;;;0.60;;
7661;SDS011;30314;48.184;11.510;2023-12-14T01:49:00;1.83;;;0.50;;
7661;SDS011;30314;48.184;11.510;2023-12-14T01:51:27;1.63;;;0.57;;
7661;SDS011;30314;48.184;11.510;2023-12-14T01:53:54;0.80;;;0.37;;
7661;SDS011;30314;48.184;11.510;2023-12-14T01:56:20;2.00;;;0.47;;
7661;SDS011;30314;48.184;11.510;2023-12-14T01:58:47;0.80;;;0.40;;
7661;SDS011;30314;48.184;11.510;2023-12-14T02:01:17;1.23;;;0.40;;
7661;SDS011;30314;48.184;11.510;2023-12-14T02:03:52;0.90;;;0.50;;
7661;SDS011;30314;48.184;11.510;2023-12-14T02:06:20;0.97;;;0.57;;
7661;SDS011;30314;48.184;11.510;2023-12-14T02:08:47;1.27;;;0.40;;
7661;SDS011;30314;48.184;11.510;2023-12-14T02:11:14;1.20;;;0.67;;
7661;SDS011;30314;48.184;11.510;2023-12-14T02:13:40;0.70;;;0.30;;
7661;SDS011;30314;48.184;11.510;2023-12-14T02:16:07;1.23;;;0.40;;
7661;SDS011;30314;48.184;11.510;2023-12-14T02:18:35;0.93;;;0.37;;
7661;SDS011;30314;48.184;11.510;2023-12-14T02:21:02;0.90;;;0.47;;
7661;SDS011;30314;48.184;11.510;2023-12-14T02:23:28;1.30;;;0.30;;
7661;SDS011;30314;48.184;11.510;2023-12-14T02:25:56;1.17;;;0.30;;
7661;SDS011;30314;48.184;11.510;2023-12-14T02:28:22;1.07;;;0.50;;
7661;SDS011;30314;48.184;11.510;2023-12-14T02:30:49;2.97;;;0.60;;
7661;SDS011;30314;48.184;11.510;2023-12-14T02:33:15;1.97;;;0.43;;
7661;SDS011;30314;48.184;11.510;2023-12-14T02:35:42;2.20;;;0.70;;
7661;SDS011;30314;48.184;11.510;2023-12-14T02:38:09;1.53;;;0.80;;
7661;SDS011;30314;48.184;11.510;2023-12-14T02:40:36;1.80;;;1.03;;
7661;SDS011;30314;48.184;11.510;2023-12-14T02:43:02;1.50;;;1.17;;
7661;SDS011;30314;48.184;11.510;2023-12-14T02:45:29;2.20;;;1.17;;
7661;SDS011;30314;48.184;11.510;2023-12-14T02:47:56;1.57;;;1.00;;
7661;SDS011;30314;48.184;11.510;2023-12-14T02:50:22;3.20;;;1.43;;
7661;SDS011;30314;48.184;11.510;2023-12-14T02:52:49;3.77;;;1.53;;
7661;SDS011;30314;48.184;11.510;2023-12-14T02:55:16;2.60;;;1.33;;
7661;SDS011;30314;48.184;11.510;2023-12-14T02:57:43;3.20;;;1.27;;
7661;SDS011;30314;48.184;11.510;2023-12-14T03:00:11;2.60;;;1.20;;
7661;SDS011;30314;48.184;11.510;2023-12-14T03:02:38;3.00;;;1.87;;
7661;SDS011;30314;48.184;11.510;2023-12-14T03:05:05;4.93;;;2.70;;
7661;SDS011;30314;48.184;11.510;2023-12-14T03:07:35;3.37;;;1.97;;
7661;SDS011;30314;48.184;11.510;2023-12-14T03:10:02;2.50;;;1.50;;
7661;SDS011;30314;48.184;11.510;2023-12-14T03:12:29;2.47;;;1.60;;
7661;SDS011;30314;48.184;11.510;2023-12-14T03:14:56;2.50;;;1.87;;
7661;SDS011;30314;48.184;11.510;2023-12-14T03:17:23;2.70;;;2.03;;
7661;SDS011;30314;48.184;11.510;2023-12-14T03:19:49;4.03;;;2.23;;
7661;SDS011;30314;48.184;11.510;2023-12-14T03:22:16;4.93;;;2.40;;
7661;SDS011;30314;48.184;11.510;2023-12-14T03:24:42;3.50;;;2.00;;
7661;SDS011;30314;48.184;11.510;2023-12-14T03:27:09;4.57;;;2.80;;
7661;SDS011;30314;48.184;11.510;2023-12-14T03:29:36;3.00;;;2.03;;
7661;SDS011;30314;48.184;11.510;2023-12-14T03:32:02;4.30;;;2.33;;
7661;SDS011;30314;48.184;11.510;2023-12-14T03:34:29;3.20;;;2.30;;
7661;SDS011;30314;48.184;11.510;2023-12-14T03:36:56;3.03;;;2.03;;
7661;SDS011;30314;48.184;11.510;2023-12-14T03:39:22;2.50;;;2.10;;
7661;SDS011;30314;48.184;11.510;2023-12-14T03:41:49;2.20;;;1.70;;
7661;SDS011;30314;48.184;11.510;2023-12-14T03:44:15;2.53;;;1.70;;
7661;SDS011;30314;48.184;11.510;2023-12-14T03:46:42;3.03;;;2.27;;
7661;SDS011;30314;48.184;11.510;2023-12-14T03:49:08;2.73;;;1.93;;
7661;SDS011;30314;48.184;11.510;2023-12-14T03:51:35;2.27;;;1.37;;
7661;SDS011;30314;48.184;11.510;2023-12-14T03:54:02;3.03;;;2.43;;
7661;SDS011;30314;48.184;11.510;2023-12-14T03:56:29;3.20;;;2.00;;
7661;SDS011;30314;48.184;11.510;2023-12-14T03:58:55;2.40;;;1.70;;
7661;SDS011;30314;48.184;11.510;2023-12-14T04:01:23;2.47;;;1.60;;
7661;SDS011;30314;48.184;11.510;2023-12-14T04:03:50;2.83;;;2.10;;
7661;SDS011;30314;48.184;11.510;2023-12-14T04:06:17;6.90;;;2.07;;
7661;SDS011;30314;48.184;11.510;2023-12-14T04:08:43;2.90;;;2.10;;
7661;SDS011;30314;48.184;11.510;2023-12-14T04:11:10;2.80;;;1.97;;
7661;SDS011;30314;48.184;11.510;2023-12-14T04:13:38;2.43;;;1.77;;
7661;SDS011;30314;48.184;11.510;2023-12-14T04:16:05;2.80;;;1.63;;
7661;SDS011;30314;48.184;11.510;2023-12-14T04:18:32;2.80;;;1.50;;
7661;SDS011;30314;48.184;11.510;2023-12-14T04:20:59;1.57;;;1.30;;
7661;SDS011;30314;48.184;11.510;2023-12-14T04:23:25;3.20;;;1.73;;
7661;SDS011;30314;48.184;11.510;2023-12-14T04:25:53;2.80;;;1.60;;
7661;SDS011;30314;48.184;11.510;2023-12-14T04:28:19;3.63;;;1.60;;
7661;SDS011;30314;48.184;11.510;2023-12-14T04:30:46;2.60;;;1.70;;
7661;SDS011;30314;48.184;11.510;2023-12-14T04:33:13;2.03;;;1.53;;
7661;SDS011;30314;48.184;11.510;2023-12-14T04:35:40;2.13;;;1.40;;
7661;SDS011;30314;48.184;11.510;2023-12-14T04:38:06;3.37;;;2.00;;
7661;SDS011;30314;48.184;11.510;2023-12-14T04:40:33;7.50;;;2.00;;
7661;SDS011;30314;48.184;11.510;2023-12-14T04:43:00;2.30;;;1.23;;
7661;SDS011;30314;48.184;11.510;2023-12-14T04:45:26;1.83;;;1.47;;
7661;SDS011;30314;48.184;11.510;2023-12-14T04:47:53;1.57;;;1.23;;
7661;SDS011;30314;48.184;11.510;2023-12-14T04:50:20;2.00;;;1.30;;
7661;SDS011;30314;48.184;11.510;2023-12-14T04:52:47;1.97;;;1.10;;
7661;SDS011;30314;48.184;11.510;2023-12-14T04:55:14;1.90;;;1.37;;
7661;SDS011;30314;48.184;11.510;2023-12-14T04:57:40;2.10;;;1.00;;
7661;SDS011;30314;48.184;11.510;2023-12-14T05:00:07;1.20;;;0.80;;
7661;SDS011;30314;48.184;11.510;2023-12-14T05:02:34;2.30;;;1.30;;
7661;SDS011;30314;48.184;11.510;2023-12-14T05:05:01;3.53;;;1.50;;
7661;SDS011;30314;48.184;11.510;2023-12-14T05:07:28;3.70;;;1.43;;
7661;SDS011;30314;48.184;11.510;2023-12-14T05:09:56;1.50;;;1.10;;
7661;SDS011;30314;48.184;11.510;2023-12-14T05:12:24;2.10;;;1.40;;
7661;SDS011;30314;48.184;11.510;2023-12-14T05:14:52;2.40;;;1.27;;
7661;SDS011;30314;48.184;11.510;2023-12-14T05:17:18;2.20;;;1.20;;
7661;SDS011;30314;48.184;11.510;2023-12-14T05:19:46;2.23;;;1.00;;
7661;SDS011;30314;48.184;11.510;2023-12-14T05:22:12;1.80;;;0.73;;
7661;SDS011;30314;48.184;11.510;2023-12-14T05:24:39;1.10;;;0.87;;
7661;SDS011;30314;48.184;11.510;2023-12-14T05:27:06;1.10;;;0.70;;
7661;SDS011;30314;48.184;11.510;2023-12-14T05:29:32;2.17;;;1.10;;
7661;SDS011;30314;48.184;11.510;2023-12-14T05:31:59;2.50;;;0.93;;
7661;SDS011;30314;48.184;11.510;2023-12-14T05:34:26;2.00;;;1.20;;
7661;SDS011;30314;48.184;11.510;2023-12-14T05:36:53;3.20;;;1.47;;
7661;SDS011;30314;48.184;11.510;2023-12-14T05:39:20;3.73;;;1.53;;
7661;SDS011;30314;48.184;11.510;2023-12-14T05:41:47;2.50;;;1.40;;
7661;SDS011;30314;48.184;11.510;2023-12-14T05:44:13;1.67;;;0.77;;
7661;SDS011;30314;48.184;11.510;2023-12-14T05:46:40;2.87;;;1.60;;
7661;SDS011;30314;48.184;11.510;2023-12-14T05:49:07;1.53;;;1.17;;
7661;SDS011;30314;48.184;11.510;2023-12-14T05:51:34;3.70;;;1.30;;
7661;SDS011;30314;48.184;11.510;2023-12-14T05:54:00;3.13;;;2.20;;
7661;SDS011;30314;48.184;11.510;2023-12-14T05:56:27;6.30;;;1.97;;
7661;SDS011;30314;48.184;11.510;2023-12-14T05:58:54;2.60;;;1.67;;
7661;SDS011;30314;48.184;11.510;2023-12-14T06:01:22;3.70;;;1.87;;
7661;SDS011;30314;48.184;11.510;2023-12-14T06:03:50;3.63;;;2.13;;
7661;SDS011;30314;48.184;11.510;2023-12-14T06:06:16;5.40;;;2.20;;
7661;SDS011;30314;48.184;11.510;2023-12-14T06:08:43;3.20;;;1.93;;
7661;SDS011;30314;48.184;11.510;2023-12-14T06:11:10;2.33;;;1.73;;
7661;SDS011;30314;48.184;11.510;2023-12-14T06:13:37;2.73;;;1.80;;
7661;SDS011;30314;48.184;11.510;2023-12-14T06:16:04;2.30;;;1.87;;
7661;SDS011;30314;48.184;11.510;2023-12-14T06:18:31;5.73;;;2.23;;
7661;SDS011;30314;48.184;11.510;2023-12-14T06:20:58;2.80;;;1.90;;
7661;SDS011;30314;48.184;11.510;2023-12-14T06:23:24;2.77;;;1.87;;
7661;SDS011;30314;48.184;11.510;2023-12-14T06:25:52;3.73;;;2.23;;
7661;SDS011;30314;48.184;11.510;2023-12-14T06:28:18;4.20;;;2.23;;
7661;SDS011;30314;48.184;11.510;2023-12-14T06:30:45;4.20;;;2.90;;
7661;SDS011;30314;48.184;11.510;2023-12-14T06:33:12;3.30;;;2.20;;
7661;SDS011;30314;48.184;11.510;2023-12-14T06:35:38;4.07;;;2.47;;
7661;SDS011;30314;48.184;11.510;2023-12-14T06:38:05;3.70;;;1.97;;
7661;SDS011;30314;48.184;11.510;2023-12-14T06:40:32;3.93;;;2.40;;
7661;SDS011;30314;48.184;11.510;2023-12-14T06:42:58;5.27;;;2.60;;
7661;SDS011;30314;48.184;11.510;2023-12-14T06:45:25;5.47;;;2.77;;
7661;SDS011;30314;48.184;11.510;2023-12-14T06:47:51;6.43;;;2.63;;
7661;SDS011;30314;48.184;11.510;2023-12-14T06:50:18;4.87;;;3.10;;
7661;SDS011;30314;48.184;11.510;2023-12-14T06:52:45;8.03;;;4.30;;
7661;SDS011;30314;48.184;11.510;2023-12-14T06:55:12;7.13;;;3.50;;
7661;SDS011;30314;48.184;11.510;2023-12-14T06:57:43;7.27;;;3.10;;
7661;SDS011;30314;48.184;11.510;2023-12-14T07:00:13;5.30;;;3.00;;
7661;SDS011;30314;48.184;11.510;2023-12-14T07:02:40;7.90;;;3.30;;
7661;SDS011;30314;48.184;11.510;2023-12-14T07:05:06;6.23;;;2.80;;
7661;SDS011;30314;48.184;11.510;2023-12-14T07:07:33;4.90;;;2.23;;
7661;SDS011;30314;48.184;11.510;2023-12-14T07:10:00;9.47;;;3.03;;
7661;SDS011;30314;48.184;11.510;2023-12-14T07:12:27;2.93;;;2.53;;
7661;SDS011;30314;48.184;11.510;2023-12-14T07:14:54;7.93;;;3.20;;
7661;SDS011;30314;48.184;11.510;2023-12-14T07:17:20;5.90;;;3.53;;
7661;SDS011;30314;48.184;11.510;2023-12-14T07:19:47;5.53;;;3.37;;
7661;SDS011;30314;48.184;11.510;2023-12-14T07:22:14;4.43;;;2.80;;
7661;SDS011;30314;48.184;11.510;2023-12-14T07:24:40;7.63;;;4.17;;
7661;SDS011;30314;48.184;11.510;2023-12-14T07:27:18;7.23;;;3.10;;
7661;SDS011;30314;48.184;11.510;2023-12-14T07:29:45;7.37;;;3.23;;
7661;SDS011;30314;48.184;11.510;2023-12-14T07:32:11;6.00;;;2.53;;
7661;SDS011;30314;48.184;11.510;2023-12-14T07:34:38;4.23;;;2.80;;
7661;SDS011;30314;48.184;11.510;2023-12-14T07:37:05;7.53;;;3.50;;
7661;SDS011;30314;48.184;11.510;2023-12-14T07:39:32;4.67;;;2.60;;
7661;SDS011;30314;48.184;11.510;2023-12-14T07:41:59;10.47;;;3.60;;
7661;SDS011;30314;48.184;11.510;2023-12-14T07:44:26;4.57;;;2.90;;
7661;SDS011;30314;48.184;11.510;2023-12-14T07:46:56;3.17;;;2.37;;
7661;SDS011;30314;48.184;11.510;2023-12-14T07:49:25;3.63;;;3.23;;
7661;SDS011;30314;48.184;11.510;2023-12-14T07:51:52;5.17;;;3.03;;
7661;SDS011;30314;48.184;11.510;2023-12-14T07:54:18;6.17;;;3.33;;
7661;SDS011;30314;48.184;11.510;2023-12-14T07:56:45;4.13;;;2.63;;
7661;SDS011;30314;48.184;11.510;2023-12-14T07:59:12;6.23;;;2.90;;
7661;SDS011;30314;48.184;11.510;2023-12-14T08:01:39;8.80;;;3.87;;
7661;SDS011;30314;48.184;11.510;2023-12-14T08:04:05;7.37;;;3.80;;
7661;SDS011;30314;48.184;11.510;2023-12-14T08:06:32;5.17;;;3.87;;
7661;SDS011;30314;48.184;11.510;2023-12-14T08:08:59;6.90;;;4.17;;
7661;SDS011;30314;48.184;11.510;2023-12-14T08:11:25;10.87;;;3.93;;
7661;SDS011;30314;48.184;11.510;2023-12-14T08:13:53;7.83;;;4.00;;
7661;SDS011;30314;48.184;11.510;2023-12-14T08:16:20;6.17;;;4.10;;
7661;SDS011;30314;48.184;11.510;2023-12-14T08:18:47;7.87;;;4.93;;
7661;SDS011;30314;48.184;11.510;2023-12-14T08:21:14;10.07;;;5.50;;
7661;SDS011;30314;48.184;11.510;2023-12-14T08:23:42;8.63;;;5.20;;
7661;SDS011;30314;48.184;11.510;2023-12-14T08:26:09;6.93;;;4.20;;
7661;SDS011;30314;48.184;11.510;2023-12-14T08:28:38;8.70;;;4.87;;
7661;SDS011;30314;48.184;11.510;2023-12-14T08:31:06;7.90;;;5.20;;
7661;SDS011;30314;48.184;11.510;2023-12-14T08:33:33;8.80;;;5.30;;
7661;SDS011;30314;48.184;11.510;2023-12-14T08:35:59;9.27;;;5.17;;
7661;SDS011;30314;48.184;11.510;2023-12-14T08:38:26;9.37;;;5.10;;
7661;SDS011;30314;48.184;11.510;2023-12-14T08:40:52;7.27;;;4.57;;
7661;SDS011;30314;48.184;11.510;2023-12-14T08:43:19;7.50;;;4.67;;
7661;SDS011;30314;48.184;11.510;2023-12-14T08:45:46;8.60;;;5.23;;
7661;SDS011;30314;48.184;11.510;2023-12-14T08:48:13;9.03;;;5.23;;
7661;SDS011;30314;48.184;11.510;2023-12-14T08:50:40;7.40;;;4.63;;
7661;SDS011;30314;48.184;11.510;2023-12-14T08:53:07;10.73;;;5.77;;
7661;SDS011;30314;48.184;11.510;2023-12-14T08:55:35;8.60;;;5.20;;
7661;SDS011;30314;48.184;11.510;2023-12-14T08:58:02;9.10;;;5.30;;
7661;SDS011;30314;48.184;11.510;2023-12-14T09:00:28;7.60;;;5.07;;
7661;SDS011;30314;48.184;11.510;2023-12-14T09:02:55;7.50;;;5.00;;
7661;SDS011;30314;48.184;11.510;2023-12-14T09:05:22;10.30;;;5.60;;
7661;SDS011;30314;48.184;11.510;2023-12-14T09:07:48;9.17;;;5.70;;
7661;SDS011;30314;48.184;11.510;2023-12-14T09:10:15;7.17;;;4.80;;
7661;SDS011;30314;48.184;11.510;2023-12-14T09:12:42;10.20;;;4.67;;
7661;SDS011;30314;48.184;11.510;2023-12-14T09:15:10;7.47;;;4.80;;
7661;SDS011;30314;48.184;11.510;2023-12-14T09:17:36;8.00;;;4.90;;
7661;SDS011;30314;48.184;11.510;2023-12-14T09:20:04;7.97;;;4.40;;
7661;SDS011;30314;48.184;11.510;2023-12-14T09:22:31;7.57;;;4.80;;
7661;SDS011;30314;48.184;11.510;2023-12-14T09:24:58;6.40;;;3.90;;
7661;SDS011;30314;48.184;11.510;2023-12-14T09:27:25;10.07;;;4.77;;
7661;SDS011;30314;48.184;11.510;2023-12-14T09:29:51;7.03;;;4.90;;
7661;SDS011;30314;48.184;11.510;2023-12-14T09:32:18;7.80;;;4.80;;
7661;SDS011;30314;48.184;11.510;2023-12-14T09:34:44;9.00;;;5.20;;
7661;SDS011;30314;48.184;11.510;2023-12-14T09:37:11;8.80;;;5.17;;
7661;SDS011;30314;48.184;11.510;2023-12-14T09:39:40;13.33;;;4.97;;
7661;SDS011;30314;48.184;11.510;2023-12-14T09:42:07;7.40;;;4.80;;
7661;SDS011;30314;48.184;11.510;2023-12-14T09:44:35;6.37;;;3.80;;
7661;SDS011;30314;48.184;11.510;2023-12-14T09:47:03;8.33;;;4.17;;
7661;SDS011;30314;48.184;11.510;2023-12-14T09:49:31;6.40;;;3.80;;
7661;SDS011;30314;48.184;11.510;2023-12-14T09:51:59;7.10;;;4.70;;
7661;SDS011;30314;48.184;11.510;2023-12-14T09:54:26;6.87;;;4.17;;
7661;SDS011;30314;48.184;11.510;2023-12-14T09:56:53;8.40;;;4.87;;
7661;SDS011;30314;48.184;11.510;2023-12-14T09:59:20;9.80;;;4.97;;
7661;SDS011;30314;48.184;11.510;2023-12-14T10:01:48;7.33;;;4.53;;
7661;SDS011;30314;48.184;11.510;2023-12-14T10:04:16;7.37;;;4.27;;
7661;SDS011;30314;48.184;11.510;2023-12-14T10:06:44;7.60;;;4.70;;
7661;SDS011;30314;48.184;11.510;2023-12-14T10:09:12;7.17;;;4.70;;
7661;SDS011;30314;48.184;11.510;2023-12-14T10:11:45;6.43;;;4.00;;
7661;SDS011;30314;48.184;11.510;2023-12-14T10:14:21;7.63;;;4.93;;
7661;SDS011;30314;48.184;11.510;2023-12-14T10:16:51;9.10;;;4.97;;
7661;SDS011;30314;48.184;11.510;2023-12-14T10:19:26;8.53;;;5.00;;
7661;SDS011;30314;48.184;11.510;2023-12-14T10:21:53;5.90;;;4.27;;
7661;SDS011;30314;48.184;11.510;2023-12-14T10:24:19;7.40;;;5.07;;
7661;SDS011;30314;48.184;11.510;2023-12-14T10:26:47;7.53;;;5.20;;
7661;SDS011;30314;48.184;11.510;2023-12-14T10:29:14;9.07;;;5.70;;
7661;SDS011;30314;48.184;11.510;2023-12-14T10:31:42;6.60;;;4.03;;
7661;SDS011;30314;48.184;11.510;2023-12-14T10:34:10;4.77;;;3.30;;
7661;SDS011;30314;48.184;11.510;2023-12-14T10:36:38;5.20;;;2.30;;
7661;SDS011;30314;48.184;11.510;2023-12-14T10:39:06;2.77;;;2.13;;
7661;SDS011;30314;48.184;11.510;2023-12-14T10:41:37;4.37;;;2.13;;
7661;SDS011;30314;48.184;11.510;2023-12-14T10:44:04;6.40;;;3.70;;
7661;SDS011;30314;48.184;11.510;2023-12-14T10:46:53;4.50;;;2.37;;
7661;SDS011;30314;48.184;11.510;2023-12-14T10:49:25;5.23;;;2.37;;
7661;SDS011;30314;48.184;11.510;2023-12-14T10:51:53;5.77;;;3.70;;
7661;SDS011;30314;48.184;11.510;2023-12-14T10:54:23;5.80;;;3.67;;
7661;SDS011;30314;48.184;11.510;2023-12-14T10:56:54;6.93;;;3.80;;
7661;SDS011;30314;48.184;11.510;2023-12-14T10:59:25;7.53;;;3.70;;
7661;SDS011;30314;48.184;11.510;2023-12-14T11:01:52;5.27;;;4.23;;
7661;SDS011;30314;48.184;11.510;2023-12-14T11:04:24;6.47;;;4.47;;
7661;SDS011;30314;48.184;11.510;2023-12-14T11:06:53;8.30;;;4.80;;
7661;SDS011;30314;48.184;11.510;2023-12-14T11:09:22;8.83;;;5.77;;
7661;SDS011;30314;48.184;11.510;2023-12-14T11:14:20;9.67;;;5.13;;
7661;SDS011;30314;48.184;11.510;2023-12-14T11:16:50;8.40;;;4.60;;
7661;SDS011;30314;48.184;11.510;2023-12-14T11:24:23;4.90;;;3.70;;
7661;SDS011;30314;48.184;11.510;2023-12-14T11:26:50;6.80;;;3.77;;
7661;SDS011;30314;48.184;11.510;2023-12-14T11:29:18;4.27;;;3.17;;
7661;SDS011;30314;48.184;11.510;2023-12-14T11:31:48;5.40;;;3.47;;
7661;SDS011;30314;48.184;11.510;2023-12-14T11:34:16;7.73;;;3.37;;
7661;SDS011;30314;48.184;11.510;2023-12-14T11:36:43;4.20;;;2.70;;
7661;SDS011;30314;48.184;11.510;2023-12-14T11:39:12;3.70;;;2.00;;
7661;SDS011;30314;48.184;11.510;2023-12-14T11:41:39;3.00;;;2.33;;
7661;SDS011;30314;48.184;11.510;2023-12-14T11:44:05;4.70;;;2.80;;
7661;SDS011;30314;48.184;11.510;2023-12-14T11:46:33;2.40;;;2.00;;
7661;SDS011;30314;48.184;11.510;2023-12-14T11:49:00;4.87;;;2.23;;
7661;SDS011;30314;48.184;11.510;2023-12-14T11:51:29;3.50;;;1.90;;
7661;SDS011;30314;48.184;11.510;2023-12-14T11:54:00;2.60;;;1.50;;
7661;SDS011;30314;48.184;11.510;2023-12-14T11:56:28;3.90;;;2.00;;
7661;SDS011;30314;48.184;11.510;2023-12-14T11:58:57;2.00;;;1.13;;
7661;SDS011;30314;48.184;11.510;2023-12-14T12:01:23;2.43;;;1.50;;
7661;SDS011;30314;48.184;11.510;2023-12-14T12:03:52;2.00;;;1.03;;
7661;SDS011;30314;48.184;11.510;2023-12-14T12:06:23;3.00;;;1.57;;
7661;SDS011;30314;48.184;11.510;2023-12-14T12:08:51;2.77;;;1.67;;
7661;SDS011;30314;48.184;11.510;2023-12-14T12:11:19;2.37;;;1.70;;
7661;SDS011;30314;48.184;11.510;2023-12-14T12:13:54;4.70;;;1.90;;
7661;SDS011;30314;48.184;11.510;2023-12-14T12:16:22;3.43;;;1.57;;
7661;SDS011;30314;48.184;11.510;2023-12-14T12:18:49;2.03;;;1.43;;
7661;SDS011;30314;48.184;11.510;2023-12-14T12:21:17;2.80;;;1.50;;
7661;SDS011;30314;48.184;11.510;2023-12-14T12:23:44;3.33;;;1.50;;
7661;SDS011;30314;48.184;11.510;2023-12-14T12:26:11;3.40;;;1.60;;
7661;SDS011;30314;48.184;11.510;2023-12-14T12:28:38;3.33;;;1.70;;
7661;SDS011;30314;48.184;11.510;2023-12-14T12:31:05;2.00;;;1.20;;
7661;SDS011;30314;48.184;11.510;2023-12-14T12:33:31;3.00;;;1.37;;
7661;SDS011;30314;48.184;11.510;2023-12-14T12:36:04;6.30;;;2.53;;
7661;SDS011;30314;48.184;11.510;2023-12-14T12:38:31;3.57;;;1.27;;
7661;SDS011;30314;48.184;11.510;2023-12-14T12:40:58;2.47;;;1.30;;
7661;SDS011;30314;48.184;11.510;2023-12-14T12:43:27;3.17;;;1.63;;
7661;SDS011;30314;48.184;11.510;2023-12-14T12:45:53;5.17;;;1.37;;
7661;SDS011;30314;48.184;11.510;2023-12-14T12:48:20;3.10;;;1.30;;
7661;SDS011;30314;48.184;11.510;2023-12-14T12:50:50;6.87;;;1.50;;
7661;SDS011;30314;48.184;11.510;2023-12-14T12:53:17;4.90;;;2.13;;
7661;SDS011;30314;48.184;11.510;2023-12-14T12:55:44;3.77;;;2.10;;
7661;SDS011;30314;48.184;11.510;2023-12-14T12:58:11;4.07;;;1.83;;
7661;SDS011;30314;48.184;11.510;2023-12-14T13:00:38;2.73;;;1.73;;
7661;SDS011;30314;48.184;11.510;2023-12-14T13:03:05;2.00;;;1.63;;
7661;SDS011;30314;48.184;11.510;2023-12-14T13:05:32;3.47;;;1.63;;
7661;SDS011;30314;48.184;11.510;2023-12-14T13:07:59;2.10;;;1.90;;
7661;SDS011;30314;48.184;11.510;2023-12-14T13:10:26;2.50;;;1.97;;
7661;SDS011;30314;48.184;11.510;2023-12-14T13:12:58;2.97;;;2.23;;
7661;SDS011;30314;48.184;11.510;2023-12-14T13:15:25;3.30;;;1.40;;
7661;SDS011;30314;48.184;11.510;2023-12-14T13:17:53;2.40;;;2.10;;
7661;SDS011;30314;48.184;11.510;2023-12-14T13:20:21;2.00;;;1.47;;
7661;SDS011;30314;48.184;11.510;2023-12-14T13:22:48;2.90;;;2.00;;
7661;SDS011;30314;48.184;11.510;2023-12-14T13:25:17;3.63;;;2.20;;
7661;SDS011;30314;48.184;11.510;2023-12-14T13:27:44;2.83;;;1.67;;
7661;SDS011;30314;48.184;11.510;2023-12-14T13:30:11;1.90;;;1.37;;
7661;SDS011;30314;48.184;11.510;2023-12-14T13:32:43;2.83;;;1.57;;
7661;SDS011;30314;48.184;11.510;2023-12-14T13:35:10;3.30;;;1.80;;
7661;SDS011;30314;48.184;11.510;2023-12-14T13:37:37;1.30;;;1.13;;
7661;SDS011;30314;48.184;11.510;2023-12-14T13:40:04;2.23;;;1.63;;
7661;SDS011;30314;48.184;11.510;2023-12-14T13:42:33;3.03;;;1.90;;
7661;SDS011;30314;48.184;11.510;2023-12-14T13:44:59;2.30;;;1.77;;
7661;SDS011;30314;48.184;11.510;2023-12-14T13:47:26;2.67;;;1.70;;
7661;SDS011;30314;48.184;11.510;2023-12-14T13:49:53;3.97;;;2.13;;
7661;SDS011;30314;48.184;11.510;2023-12-14T13:52:20;3.90;;;2.30;;
7661;SDS011;30314;48.184;11.510;2023-12-14T13:54:46;4.13;;;1.90;;
7661;SDS011;30314;48.184;11.510;2023-12-14T13:57:13;2.43;;;1.50;;
7661;SDS011;30314;48.184;11.510;2023-12-14T13:59:40;5.20;;;1.57;;
7661;SDS011;30314;48.184;11.510;2023-12-14T14:02:06;5.47;;;1.67;;
7661;SDS011;30314;48.184;11.510;2023-12-14T14:04:33;4.30;;;1.43;;
7661;SDS011;30314;48.184;11.510;2023-12-14T14:07:00;4.77;;;1.87;;
7661;SDS011;30314;48.184;11.510;2023-12-14T14:09:26;3.70;;;2.57;;
7661;SDS011;30314;48.184;11.510;2023-12-14T14:11:53;1.97;;;1.37;;
7661;SDS011;30314;48.184;11.510;2023-12-14T14:14:22;4.00;;;2.07;;
7661;SDS011;30314;48.184;11.510;2023-12-14T14:16:49;5.03;;;1.90;;
7661;SDS011;30314;48.184;11.510;2023-12-14T14:19:16;2.57;;;1.70;;
7661;SDS011;30314;48.184;11.510;2023-12-14T14:21:42;5.90;;;2.03;;
7661;SDS011;30314;48.184;11.510;2023-12-14T14:24:09;3.10;;;1.80;;
7661;SDS011;30314;48.184;11.510;2023-12-14T14:26:36;2.00;;;1.60;;
7661;SDS011;30314;48.184;11.510;2023-12-14T14:29:02;4.83;;;1.60;;
7661;SDS011;30314;48.184;11.510;2023-12-14T14:31:29;2.33;;;1.83;;
7661;SDS011;30314;48.184;11.510;2023-12-14T14:33:58;3.23;;;1.90;;
7661;SDS011;30314;48.184;11.510;2023-12-14T14:36:26;4.60;;;1.83;;
7661;SDS011;30314;48.184;11.510;2023-12-14T14:38:53;3.20;;;2.10;;
7661;SDS011;30314;48.184;11.510;2023-12-14T14:41:21;5.13;;;2.47;;
7661;SDS011;30314;48.184;11.510;2023-12-14T14:43:48;7.93;;;4.37;;
7661;SDS011;30314;48.184;11.510;2023-12-14T14:46:14;3.47;;;2.73;;
7661;SDS011;30314;48.184;11.510;2023-12-14T14:48:41;3.50;;;2.10;;
7661;SDS011;30314;48.184;11.510;2023-12-14T14:51:09;5.17;;;2.70;;
7661;SDS011;30314;48.184;11.510;2023-12-14T14:53:35;6.93;;;3.30;;
7661;SDS011;30314;48.184;11.510;2023-12-14T14:56:03;5.97;;;2.90;;